Pagina principale
METAR-TAF:

METAR-TAF

Aeroporti :

Novara, Italia

Aeroporto militare Cameri

latitudine: 45-31N, longitudine: 008-40E, altezza: 178 m

Osservazione

Il bollettino è stato emesso 14 ore e 14 minuti fa, alle 17:55 UTC
Vento 1 kt da direzioni variabili
Temperature 26°C
Umidità 48%
Pressione 1016 hPa
Visibilità 10 km o più
nessuna nube inferiore a 1500 m e nessun cumulonembo

METAR: LIMN 261755Z VRB01KT CAVOK 26/14 Q1016 RMK SKC VIS MIN 9999 BLU

Ora: 10:09 (08:09 UTC)

Previsione

Il bollettino è stato emesso 15 ore e 9 minuti fa, alle 17:00 UTC
Previsione valida dal 26 alle 18 UTC al 27 alle 03 UTC
Vento 6 kt da sud-est
Visibilità 10 km o più
nessuna nube inferiore a 1500 m e nessun cumulonembo

TAF: LIMN 261700Z 2618/2703 14006KT CAVOK

Osservazioni e previsioni meteorologiche di più di 4000 aeroporti (messaggi METAR e TAF).

Le stazioni disponibili sono rappresentate dai dischi gialli e rossi sulla carta.

Puntare il mouse per vedere il nome della stazione.

Clicca sopra per visualizzare le osservazioni e previsioni meteorologiche.

Per cambiare la mappa : fare clic sui pulsanti verdi con una croce nera per ingrandire, il pulsante verde con un trattino per diminuire, o sulla freccia verde per le mappe adiacenti.


METAR-TAF: